Time;durP1;ratioP1;P1;durP2;ratioP2;P2;SDS_P1;SDS_P2;PMS_P1;PMS_P2;Temp;Humidity;BMP_temperature;BMP_pressure;BME280_temperature;BME280_humidity;BME280_pressure;Samples;Min_cycle;Max_cycle;Signal;HPM_P1;HPM_P2
2022/01/20 00:01:23;;;;;;;9.80;8.87;;;3.10;99.90;;;4.03;89.15;98553.78;5186199;28;20319;-66
2022/01/20 00:03:59;;;;;;;10.07;9.17;;;3.10;99.90;;;3.93;90.05;98562.16;5179891;28;20225;-66
2022/01/20 00:09:46;;;;;;;10.17;9.13;;;3.10;99.90;;;3.90;90.58;98568.56;5176754;28;20731;-66
2022/01/20 00:26:52;;;;;;;10.90;9.90;;;3.00;99.90;;;3.73;92.72;98557.75;5188974;28;20932;-66
2022/01/20 00:29:29;;;;;;;10.63;9.63;;;2.90;99.90;;;3.73;92.57;98565.34;5179090;28;20227;-65
2022/01/20 00:32:08;;;;;;;10.20;9.10;;;2.80;99.90;;;3.69;93.02;98568.34;5189686;28;20222;-65
2022/01/20 00:37:42;;;;;;;9.90;9.00;;;2.80;99.90;;;3.63;93.04;98574.41;5174360;28;20228;-65
2022/01/20 00:40:15;;;;;;;9.80;8.90;;;2.70;99.90;;;3.69;93.05;98569.94;5184866;28;20237;-65
2022/01/20 00:42:48;;;;;;;10.57;9.50;;;2.80;99.90;;;3.69;92.77;98575.91;5177939;28;20314;-65
2022/01/20 00:45:21;;;;;;;10.10;9.20;;;2.70;99.90;;;3.63;93.49;98574.41;5182638;28;20220;-65
2022/01/20 00:47:54;;;;;;;10.13;9.10;;;2.80;99.90;;;3.65;93.47;98578.00;5184338;28;20236;-65
2022/01/20 00:50:28;;;;;;;9.97;9.00;;;2.70;99.90;;;3.54;94.66;98587.97;5186051;28;20231;-65
2022/01/20 00:53:02;;;;;;;11.57;10.20;;;2.80;99.90;;;3.63;94.01;98577.84;5183330;28;20761;-65
2022/01/20 00:55:36;;;;;;;10.37;9.27;;;2.80;99.90;;;3.55;94.37;98587.22;5194495;28;20251;-65
2022/01/20 00:58:09;;;;;;;10.70;9.60;;;2.80;99.90;;;3.58;94.96;98589.16;5195556;28;20237;-65
2022/01/20 01:00:42;;;;;;;10.67;9.67;;;2.80;99.90;;;3.59;94.51;98594.34;5197475;28;20224;-64
2022/01/20 01:03:15;;;;;;;10.40;9.50;;;2.70;99.90;;;3.51;94.85;98590.19;5184599;28;20219;-64
2022/01/20 01:06:02;;;;;;;10.10;9.10;;;2.70;99.90;;;3.52;95.08;98586.94;5188689;28;20756;-64
2022/01/20 01:08:37;;;;;;;10.20;9.20;;;2.70;99.90;;;3.48;95.27;98584.84;5183948;28;20235;-64
2022/01/20 01:11:10;;;;;;;10.67;9.57;;;2.70;99.90;;;3.54;94.98;98585.44;5184168;28;20231;-64
2022/01/20 01:13:43;;;;;;;10.53;9.50;;;2.70;99.90;;;3.59;94.58;98579.19;5183227;28;20228;-64
2022/01/20 01:16:19;;;;;;;10.33;9.43;;;2.70;99.90;;;3.56;94.66;98585.59;5183313;28;20243;-66
2022/01/20 01:21:45;;;;;;;10.60;9.47;;;2.60;99.90;;;3.21;94.94;98607.47;5181315;28;20225;-67
2022/01/20 01:24:20;;;;;;;10.43;9.43;;;2.50;99.90;;;3.12;96.45;98607.47;5184951;28;20222;-67
2022/01/20 01:26:53;;;;;;;10.43;9.33;;;2.50;99.90;;;3.17;96.53;98602.09;5184419;28;20260;-67
2022/01/20 01:29:45;;;;;;;11.37;10.23;;;2.40;99.90;;;3.17;96.03;98604.63;5182792;28;20215;-67
2022/01/20 01:32:23;;;;;;;11.07;10.07;;;2.40;99.90;;;3.04;96.43;98601.66;5182225;28;20345;-67
2022/01/20 01:34:56;;;;;;;10.63;9.47;;;2.30;99.90;;;3.17;95.92;98598.69;5179911;28;21743;-67
2022/01/20 01:38:23;;;;;;;10.83;9.73;;;2.30;99.90;;;3.08;96.57;98591.09;5180681;28;20215;-67
2022/01/20 01:40:31;;;;;;;11.00;9.97;;;2.20;99.90;;;2.95;96.79;98595.72;5187183;28;20331;-68
2022/01/20 01:43:12;;;;;;;10.97;9.87;;;2.20;99.90;;;2.97;96.95;98596.72;5184069;28;20656;-68
2022/01/20 01:45:46;;;;;;;10.60;9.60;;;2.20;99.90;;;2.92;97.97;98592.88;5185428;28;20221;-68
2022/01/20 01:48:19;;;;;;;10.23;9.20;;;2.20;99.90;;;2.90;97.53;98591.84;5176654;28;20220;-68
2022/01/20 01:50:52;;;;;;;10.80;9.70;;;2.20;99.90;;;2.80;98.35;98589.13;5182337;28;20230;-68
2022/01/20 01:53:25;;;;;;;10.77;9.77;;;2.10;99.90;;;2.70;98.92;98589.88;5183954;28;20325;-68
2022/01/20 01:56:00;;;;;;;11.40;10.20;;;2.00;99.90;;;2.59;98.77;98605.56;5182547;28;20219;-68
2022/01/20 01:58:34;;;;;;;12.47;11.23;;;2.00;99.90;;;2.47;99.20;98598.56;5182733;28;20224;-68
2022/01/20 02:01:07;;;;;;;11.67;10.47;;;2.00;99.90;;;2.46;100.00;98605.97;5181991;28;20225;-69
2022/01/20 02:03:46;;;;;;;13.77;12.37;;;1.90;99.90;;;2.53;100.00;98590.72;5177152;28;20262;-68
2022/01/20 02:06:41;;;;;;;11.97;10.57;;;1.90;99.90;;;2.66;100.00;98592.81;5180266;28;20287;-68
2022/01/20 02:09:29;;;;;;;12.20;10.97;;;1.90;99.90;;;2.68;100.00;98594.75;5183320;28;20222;-68
2022/01/20 02:17:57;;;;;;;12.10;10.90;;;2.00;99.90;;;2.75;100.00;98581.13;5182049;28;20240;-68
2022/01/20 02:20:32;;;;;;;11.87;10.60;;;1.90;99.90;;;2.84;100.00;98574.47;5181963;28;20215;-68
2022/01/20 02:23:05;;;;;;;11.70;10.50;;;2.00;99.90;;;2.86;100.00;98582.16;5180340;28;20238;-68
2022/01/20 02:25:39;;;;;;;12.10;10.90;;;2.00;99.90;;;2.79;100.00;98585.72;5182131;28;20566;-68
2022/01/20 02:28:12;;;;;;;11.67;10.57;;;2.00;99.90;;;2.70;100.00;98572.22;5182193;28;20222;-68
2022/01/20 02:30:45;;;;;;;12.33;11.23;;;2.00;99.90;;;2.80;100.00;98579.03;5181546;28;20257;-68
2022/01/20 02:33:22;;;;;;;12.23;10.93;;;2.00;99.90;;;2.86;100.00;98567.00;5179068;28;20314;-69
2022/01/20 02:36:00;;;;;;;11.67;10.47;;;2.00;99.90;;;2.73;100.00;98576.66;5179965;28;20631;-68
2022/01/20 02:38:37;;;;;;;11.10;10.10;;;2.00;99.90;;;2.68;100.00;98581.25;5180471;28;20225;-69
2022/01/20 02:46:52;;;;;;;12.90;11.60;;;1.90;99.90;;;2.64;100.00;98575.03;5180736;28;20222;-69
2022/01/20 02:49:25;;;;;;;12.43;11.23;;;1.90;99.90;;;2.59;100.00;98570.25;5178599;28;20219;-69
2022/01/20 02:52:01;;;;;;;11.90;10.70;;;1.90;99.90;;;2.58;100.00;98576.06;5182184;28;20232;-69
2022/01/20 02:54:34;;;;;;;11.67;10.47;;;1.80;99.90;;;2.57;100.00;98575.13;5177609;28;20224;-69
2022/01/20 02:57:08;;;;;;;11.70;10.60;;;1.80;99.90;;;2.53;100.00;98574.69;5217722;23;20229;-69
2022/01/20 02:59:41;;;;;;;12.03;10.17;;;1.80;99.90;;;2.47;100.00;98582.53;5209056;28;20232;-69
2022/01/20 03:02:14;;;;;;;11.40;10.23;;;1.80;99.90;;;2.49;100.00;98583.59;5205168;28;20229;-69
2022/01/20 03:04:49;;;;;;;12.37;11.27;;;1.80;99.90;;;2.48;100.00;98581.78;5195409;28;20255;-67
2022/01/20 03:07:24;;;;;;;13.07;11.83;;;1.80;99.90;;;2.50;100.00;98585.38;5197610;28;20658;-68
2022/01/20 03:09:57;;;;;;;13.40;11.20;;;1.90;99.90;;;2.44;100.00;98583.13;5198012;28;20223;-68
2022/01/20 03:12:30;;;;;;;12.33;11.10;;;1.80;99.90;;;2.45;100.00;98581.50;5200208;28;20720;-68
2022/01/20 03:15:07;;;;;;;11.93;10.73;;;1.80;99.90;;;2.40;100.00;98593.63;5199423;28;20500;-69
2022/01/20 03:17:40;;;;;;;12.83;11.43;;;1.80;99.90;;;2.36;100.00;98590.66;5202708;28;20712;-69
2022/01/20 03:20:13;;;;;;;12.70;11.50;;;1.70;99.90;;;2.33;100.00;98596.28;5198626;28;20556;-68
2022/01/20 03:22:48;;;;;;;12.23;11.13;;;1.70;99.90;;;2.29;100.00;98609.34;5200413;28;20623;-69
2022/01/20 03:25:21;;;;;;;11.77;10.57;;;1.70;99.90;;;2.23;100.00;98604.59;5203577;28;20754;-67
2022/01/20 03:27:54;;;;;;;12.73;11.37;;;1.70;99.90;;;2.14;100.00;98602.75;5201486;28;20218;-68
2022/01/20 03:30:28;;;;;;;12.23;10.93;;;1.60;99.90;;;2.11;100.00;98595.75;5203960;28;20319;-69
2022/01/20 03:33:02;;;;;;;13.00;11.67;;;1.60;99.90;;;2.07;100.00;98592.78;5200789;28;20225;-70
2022/01/20 03:35:35;;;;;;;12.97;11.67;;;1.50;99.90;;;2.07;100.00;98591.16;5197220;28;20226;-68
2022/01/20 03:38:10;;;;;;;12.27;10.97;;;1.50;99.90;;;2.11;100.00;98589.81;5196517;28;20224;-68
2022/01/20 03:40:43;;;;;;;14.43;12.93;;;1.50;99.90;;;2.14;100.00;98593.53;5202241;28;20220;-68
2022/01/20 03:43:16;;;;;;;13.30;12.00;;;1.50;99.90;;;2.20;100.00;98589.16;5194018;28;20227;-65
2022/01/20 03:45:55;;;;;;;12.10;10.90;;;1.50;99.90;;;2.14;100.00;98591.03;5204424;28;20216;-69
2022/01/20 03:48:29;;;;;;;13.30;11.90;;;1.50;99.90;;;2.21;100.00;98584.97;5198167;28;20216;-69
2022/01/20 03:51:03;;;;;;;12.27;11.07;;;1.60;99.90;;;2.22;100.00;98581.72;5202354;28;20220;-68
2022/01/20 03:53:38;;;;;;;12.10;11.00;;;1.60;99.90;;;2.20;100.00;98584.09;5202869;28;20224;-68
2022/01/20 03:56:11;;;;;;;12.20;10.93;;;1.60;99.90;;;2.19;100.00;98586.44;5202795;28;20327;-69
2022/01/20 03:58:45;;;;;;;12.47;11.27;;;1.60;99.90;;;2.20;100.00;98589.16;5202577;28;20227;-68
2022/01/20 04:01:19;;;;;;;12.40;10.90;;;1.60;99.90;;;2.21;100.00;98592.56;5199523;28;20214;-68
2022/01/20 04:03:53;;;;;;;12.73;11.33;;;1.60;99.90;;;2.17;100.00;98583.75;5200141;28;20228;-68
2022/01/20 04:06:28;;;;;;;13.20;11.90;;;1.60;99.90;;;2.12;100.00;98579.00;5198880;28;20226;-69
2022/01/20 04:09:02;;;;;;;13.70;12.30;;;1.60;99.90;;;2.13;100.00;98570.72;5195707;28;20717;-68
2022/01/20 04:11:35;;;;;;;13.73;11.90;;;1.50;99.90;;;2.19;100.00;98587.34;5200847;28;20227;-68
2022/01/20 04:14:08;;;;;;;12.53;11.30;;;1.60;99.90;;;2.22;100.00;98592.69;5200681;28;20220;-69
2022/01/20 04:17:00;;;;;;;12.70;11.40;;;1.60;99.90;;;2.25;100.00;98599.66;5209782;28;20229;-68
2022/01/20 04:19:34;;;;;;;13.83;12.53;;;1.60;99.90;;;2.28;100.00;98589.00;5198308;28;20225;-66
2022/01/20 04:22:07;;;;;;;12.53;11.30;;;1.70;99.90;;;2.30;100.00;98579.97;5202503;28;20229;-68
2022/01/20 04:24:41;;;;;;;12.50;11.20;;;1.70;99.90;;;2.37;100.00;98572.25;5196185;28;20674;-68
2022/01/20 04:27:14;;;;;;;13.10;11.70;;;1.70;99.90;;;2.44;100.00;98574.69;5199788;28;20231;-68
2022/01/20 04:29:47;;;;;;;12.97;11.67;;;1.70;99.90;;;2.48;100.00;98590.25;5202764;28;20227;-68
2022/01/20 04:32:20;;;;;;;13.10;11.80;;;1.70;99.90;;;2.53;100.00;98589.84;5207175;28;20689;-68
2022/01/20 04:34:54;;;;;;;12.47;11.20;;;1.70;99.90;;;2.54;100.00;98581.50;5206348;28;20761;-69
2022/01/20 04:37:27;;;;;;;13.80;12.50;;;1.70;99.90;;;2.53;100.00;98580.63;5206760;28;20218;-68
2022/01/20 04:40:03;;;;;;;13.77;12.37;;;1.80;99.90;;;2.53;100.00;98577.22;5201699;28;20278;-69
2022/01/20 04:42:38;;;;;;;12.10;10.80;;;1.80;99.90;;;2.54;100.00;98586.56;5205602;28;20227;-69
2022/01/20 04:45:15;;;;;;;12.23;11.03;;;1.80;99.90;;;2.57;100.00;98595.31;5203187;28;20229;-68
2022/01/20 04:47:56;;;;;;;12.47;11.20;;;1.90;99.90;;;2.60;100.00;98588.06;5203377;28;20219;-69
2022/01/20 04:59:03;;;;;;;11.50;10.30;;;1.90;99.90;;;2.63;100.00;98579.91;5202652;28;20236;-68
2022/01/20 05:01:43;;;;;;;11.63;10.50;;;1.90;99.90;;;2.65;100.00;98573.38;5200921;28;20230;-69
2022/01/20 05:04:17;;;;;;;12.13;10.93;;;1.90;99.90;;;2.70;100.00;98564.63;5204198;28;20222;-66
2022/01/20 05:06:52;;;;;;;11.73;10.53;;;2.00;99.90;;;2.73;100.00;98569.97;5204240;28;20233;-68
2022/01/20 05:09:26;;;;;;;12.07;10.87;;;2.00;99.90;;;2.67;100.00;98567.75;5202249;28;20224;-68
2022/01/20 05:12:03;;;;;;;10.90;9.47;;;1.90;99.90;;;2.70;100.00;98568.03;5205054;28;20216;-66
2022/01/20 05:14:37;;;;;;;10.03;9.03;;;2.00;99.90;;;2.71;100.00;98561.34;5204556;28;20765;-68
2022/01/20 05:17:10;;;;;;;11.03;9.93;;;2.00;99.90;;;2.71;100.00;98564.78;5204614;28;20283;-66
2022/01/20 05:19:43;;;;;;;10.73;9.70;;;2.00;99.90;;;2.79;100.00;98559.59;5200624;28;20236;-67
2022/01/20 05:22:16;;;;;;;12.10;10.80;;;1.90;99.90;;;2.73;100.00;98559.00;5205081;28;20233;-65
2022/01/20 05:24:49;;;;;;;11.83;10.77;;;2.00;99.90;;;2.68;100.00;98564.47;5202931;28;20264;-68
2022/01/20 05:27:24;;;;;;;13.70;12.27;;;2.00;99.90;;;2.67;100.00;98559.28;5204097;28;20688;-67
2022/01/20 05:29:57;;;;;;;11.57;10.47;;;2.00;99.90;;;2.68;100.00;98571.16;5204076;28;20217;-68
2022/01/20 05:32:30;;;;;;;13.17;11.80;;;1.90;99.90;;;2.69;100.00;98568.78;5201921;28;20240;-67
2022/01/20 05:35:04;;;;;;;12.47;10.70;;;1.90;99.90;;;2.74;100.00;98574.28;5201859;28;20583;-66
2022/01/20 05:37:37;;;;;;;12.80;11.47;;;2.00;99.90;;;2.74;100.00;98570.88;5203632;28;20226;-67
2022/01/20 05:40:11;;;;;;;15.10;13.60;;;2.00;99.90;;;2.77;100.00;98578.75;5204215;28;20232;-67
2022/01/20 05:42:45;;;;;;;14.00;12.80;;;2.00;99.90;;;2.77;100.00;98577.09;5199031;28;20584;-67
2022/01/20 05:45:20;;;;;;;13.43;12.07;;;2.00;99.90;;;2.82;100.00;98585.13;5201497;28;20407;-65
2022/01/20 05:48:00;;;;;;;14.10;12.70;;;2.00;99.90;;;2.90;100.00;98579.22;5199042;28;20226;-67
2022/01/20 05:50:33;;;;;;;12.80;11.50;;;2.00;99.90;;;2.91;100.00;98596.13;5207567;28;22794;-67
2022/01/20 05:53:07;;;;;;;13.47;11.57;;;2.00;99.90;;;2.93;100.00;98604.75;5204602;28;20221;-68
2022/01/20 05:55:40;;;;;;;14.77;12.03;;;2.00;99.90;;;2.89;100.00;98598.53;5199611;28;20237;-67
2022/01/20 05:58:14;;;;;;;14.67;13.17;;;2.00;99.90;;;2.86;100.00;98602.34;5202099;28;20712;-67
2022/01/20 06:00:48;;;;;;;15.27;13.43;;;2.10;99.90;;;2.88;100.00;98604.28;5203707;28;20217;-67
2022/01/20 06:03:39;;;;;;;18.50;14.70;;;2.10;99.90;;;2.91;100.00;98598.66;5204283;28;20224;-67
2022/01/20 06:06:14;;;;;;;15.57;13.30;;;2.10;99.90;;;2.91;100.00;98579.34;5197070;28;20221;-67
2022/01/20 06:08:47;;;;;;;15.90;13.87;;;2.10;99.90;;;2.91;100.00;98580.97;5202163;28;20217;-68
2022/01/20 06:11:20;;;;;;;17.87;13.87;;;2.10;99.90;;;2.88;100.00;98574.00;5198977;28;20213;-65
2022/01/20 06:13:55;;;;;;;17.67;13.90;;;2.10;99.90;;;2.88;100.00;98580.69;5199988;28;20232;-65
2022/01/20 06:16:28;;;;;;;16.17;13.17;;;2.10;99.90;;;2.81;100.00;98589.31;5203013;28;20231;-67
2022/01/20 06:19:01;;;;;;;12.77;11.23;;;2.10;99.90;;;2.87;100.00;98578.91;5203310;28;20232;-67
2022/01/20 06:21:34;;;;;;;13.37;11.00;;;2.10;99.90;;;3.02;100.00;98572.81;5201688;28;20221;-66
2022/01/20 06:24:07;;;;;;;12.63;10.10;;;2.10;99.90;;;3.10;100.00;98571.06;5197626;28;20770;-65
2022/01/20 06:26:40;;;;;;;11.77;10.57;;;2.20;99.90;;;3.11;100.00;98571.19;5195694;28;20220;-66
2022/01/20 06:29:15;;;;;;;12.20;11.00;;;2.20;99.90;;;3.05;100.00;98575.66;5202304;28;20497;-64
2022/01/20 06:31:48;;;;;;;12.27;10.97;;;2.30;99.90;;;3.11;100.00;98576.25;5201592;28;20693;-65
2022/01/20 06:34:21;;;;;;;11.07;9.97;;;2.30;99.90;;;3.12;100.00;98572.09;5202430;28;20312;-65
2022/01/20 06:36:54;;;;;;;11.77;10.53;;;2.40;99.90;;;3.14;100.00;98561.38;5202809;28;20236;-66
2022/01/20 06:39:27;;;;;;;10.50;9.50;;;2.40;99.90;;;3.16;100.00;98570.00;5201433;28;20222;-65
2022/01/20 06:42:00;;;;;;;10.97;9.20;;;2.40;99.90;;;3.12;100.00;98579.69;5197767;28;20287;-66
2022/01/20 06:44:34;;;;;;;10.47;9.47;;;2.40;99.90;;;3.06;100.00;98576.53;5196209;28;20221;-65
2022/01/20 06:47:08;;;;;;;10.63;9.23;;;2.40;99.90;;;3.22;100.00;98566.31;5195534;28;20636;-65
2022/01/20 06:49:41;;;;;;;11.23;9.80;;;2.40;99.90;;;3.32;100.00;98563.91;5196737;28;20241;-66
2022/01/20 06:52:14;;;;;;;10.63;9.47;;;2.40;99.90;;;3.30;100.00;98567.94;5194922;28;21908;-66
2022/01/20 06:54:47;;;;;;;11.00;9.50;;;2.50;99.90;;;3.32;100.00;98574.00;5196536;28;20226;-65
2022/01/20 06:57:28;;;;;;;11.50;9.23;;;2.50;99.90;;;3.29;100.00;98584.72;5199325;28;20315;-66
2022/01/20 07:00:04;;;;;;;11.47;10.13;;;2.50;99.90;;;3.29;100.00;98588.88;5197729;28;20233;-66
2022/01/20 07:02:37;;;;;;;10.30;9.27;;;2.50;99.90;;;3.25;100.00;98584.28;5196662;28;20748;-65
2022/01/20 07:05:13;;;;;;;12.10;10.47;;;2.50;99.90;;;3.32;100.00;98579.06;5195351;28;20715;-66
2022/01/20 07:07:46;;;;;;;11.80;10.43;;;2.50;99.90;;;3.39;100.00;98571.34;5194681;28;20218;-66
2022/01/20 07:10:21;;;;;;;14.07;10.40;;;2.50;99.90;;;3.35;100.00;98576.84;5191712;28;20227;-66
2022/01/20 07:12:55;;;;;;;11.90;10.70;;;2.50;99.90;;;3.37;100.00;98591.38;5196845;28;20235;-66
2022/01/20 07:15:29;;;;;;;12.80;11.40;;;2.50;99.90;;;3.36;100.00;98594.66;5194836;28;20237;-66
2022/01/20 07:18:02;;;;;;;13.77;10.93;;;2.50;99.90;;;3.39;100.00;98589.03;5196397;28;20230;-66
2022/01/20 07:20:35;;;;;;;12.63;10.37;;;2.60;99.90;;;3.50;100.00;98597.66;5194987;28;20227;-66
2022/01/20 07:23:08;;;;;;;11.57;10.23;;;2.60;99.90;;;3.52;100.00;98597.06;5195578;28;21697;-66
2022/01/20 07:25:42;;;;;;;11.27;9.97;;;2.60;99.90;;;3.47;100.00;98605.81;5193565;28;20224;-66
2022/01/20 07:28:15;;;;;;;13.37;11.80;;;2.60;99.90;;;3.42;100.00;98619.63;5194816;28;20709;-66
2022/01/20 07:30:49;;;;;;;13.47;11.13;;;2.60;99.90;;;3.55;100.00;98620.09;5198936;28;20569;-65
2022/01/20 07:33:22;;;;;;;13.50;10.90;;;2.70;99.90;;;3.54;100.00;98619.91;5200365;28;20222;-65
2022/01/20 07:35:55;;;;;;;11.80;10.23;;;2.60;99.90;;;3.54;100.00;98604.75;5204409;28;20225;-65
2022/01/20 07:38:28;;;;;;;14.70;10.97;;;2.60;99.90;;;3.52;100.00;98608.75;5199460;28;20603;-65
2022/01/20 07:41:01;;;;;;;13.10;10.53;;;2.60;99.90;;;3.45;100.00;98619.94;5200134;28;20239;-65
2022/01/20 07:43:34;;;;;;;12.83;10.97;;;2.60;99.90;;;3.37;100.00;98621.69;5206457;28;20222;-65
2022/01/20 07:46:10;;;;;;;11.43;10.10;;;2.50;99.90;;;3.37;100.00;98620.81;5202511;28;20594;-65
2022/01/20 07:48:43;;;;;;;13.63;10.90;;;2.50;99.90;;;3.38;100.00;98618.47;5199543;28;20226;-65
2022/01/20 07:51:18;;;;;;;11.57;9.73;;;2.50;99.90;;;3.36;100.00;98629.16;5191930;28;20222;-65
2022/01/20 07:53:52;;;;;;;10.97;9.87;;;2.50;99.90;;;3.41;100.00;98642.25;5193426;28;20219;-65
2022/01/20 07:56:24;;;;;;;10.93;9.77;;;2.50;99.90;;;3.39;100.00;98645.50;5197888;28;20231;-65
2022/01/20 07:58:58;;;;;;;12.80;10.20;;;2.50;99.90;;;3.45;100.00;98650.25;5203219;28;20227;-65
2022/01/20 08:01:32;;;;;;;11.87;10.47;;;2.60;99.90;;;3.46;100.00;98662.13;5202235;28;20230;-65
2022/01/20 08:04:05;;;;;;;11.33;9.77;;;2.60;99.90;;;3.44;100.00;98660.22;5206460;28;20651;-65
2022/01/20 08:06:39;;;;;;;12.17;10.10;;;2.60;99.90;;;3.50;100.00;98664.22;5202308;28;20672;-66
2022/01/20 08:09:13;;;;;;;12.60;11.30;;;2.70;99.90;;;3.52;100.00;98656.78;5203073;28;20815;-65
2022/01/20 08:11:47;;;;;;;12.20;10.73;;;2.70;99.90;;;3.52;100.00;98662.75;5197907;28;21439;-65
2022/01/20 08:14:20;;;;;;;13.30;11.63;;;2.70;99.90;;;3.54;100.00;98666.28;5198123;28;20226;-66
2022/01/20 08:16:55;;;;;;;12.07;10.77;;;2.70;99.90;;;3.55;100.00;98667.22;5197681;28;20572;-66
2022/01/20 08:19:28;;;;;;;11.70;10.50;;;2.70;99.90;;;3.62;100.00;98669.56;5199075;28;20223;-66
2022/01/20 08:22:01;;;;;;;11.80;10.60;;;2.80;99.90;;;3.66;100.00;98666.59;5198390;28;20232;-66
2022/01/20 08:24:54;;;;;;;11.23;10.03;;;2.80;99.90;;;3.83;100.00;98671.66;5197339;28;20227;-66
2022/01/20 08:27:27;;;;;;;11.50;10.37;;;2.70;99.90;;;3.76;100.00;98686.09;5198577;28;20217;-66
2022/01/20 08:30:00;;;;;;;13.00;10.60;;;2.80;99.90;;;3.73;100.00;98686.69;5198103;28;20660;-65
2022/01/20 08:32:35;;;;;;;11.60;10.40;;;2.80;99.90;;;3.86;100.00;98692.91;5199877;28;20229;-66
2022/01/20 08:35:09;;;;;;;11.77;9.70;;;2.80;99.90;;;3.78;100.00;98690.53;5196144;28;20326;-65
2022/01/20 08:37:45;;;;;;;13.67;10.70;;;2.80;99.90;;;3.84;100.00;98697.84;5198378;28;20232;-66
2022/01/20 08:40:22;;;;;;;11.07;9.43;;;2.90;99.90;;;3.98;100.00;98696.63;5196657;28;20225;-66
2022/01/20 08:42:57;;;;;;;11.07;9.07;;;2.90;99.90;;;3.88;100.00;98702.44;5198439;28;20763;-66
2022/01/20 08:45:33;;;;;;;13.90;9.77;;;2.80;99.90;;;3.90;100.00;98697.53;5197526;28;20224;-66
2022/01/20 08:48:11;;;;;;;14.13;9.27;;;2.90;99.90;;;3.95;100.00;98694.69;5197321;28;20228;-65
2022/01/20 08:50:45;;;;;;;11.97;8.30;;;2.90;99.90;;;4.09;100.00;98687.50;5199269;28;20217;-66
2022/01/20 08:53:18;;;;;;;10.53;9.10;;;2.90;99.90;;;4.03;100.00;98685.28;5202846;28;20231;-66
2022/01/20 08:55:51;;;;;;;11.63;8.90;;;2.90;99.90;;;4.09;100.00;98685.00;5203408;22;20235;-66
2022/01/20 08:58:24;;;;;;;11.37;8.60;;;2.90;99.90;;;4.10;100.00;98677.56;5178650;28;20260;-66
2022/01/20 09:00:57;;;;;;;8.43;7.57;;;2.90;99.90;;;4.11;100.00;98691.97;5177246;28;20713;-65
2022/01/20 09:03:33;;;;;;;11.03;8.87;;;2.90;99.90;;;4.21;100.00;98698.81;5181372;28;20256;-66
2022/01/20 09:06:08;;;;;;;9.17;8.13;;;2.90;99.90;;;4.25;100.00;98699.25;5177873;28;20231;-66
2022/01/20 09:08:41;;;;;;;8.30;7.30;;;3.00;99.90;;;4.09;100.00;98712.81;5176492;28;20273;-66
2022/01/20 09:11:19;;;;;;;11.27;8.50;;;3.00;99.90;;;4.06;100.00;98726.06;5177842;28;20222;-67
2022/01/20 09:16:45;;;;;;;8.27;7.23;;;3.00;99.90;;;4.10;100.00;98715.50;5176087;28;20745;-65
2022/01/20 09:19:20;;;;;;;9.73;7.37;;;3.00;99.90;;;4.26;100.00;98705.19;5177952;28;20656;-65
2022/01/20 09:21:53;;;;;;;11.67;7.87;;;3.00;99.90;;;4.27;100.00;98709.53;5178275;28;20245;-66
2022/01/20 09:24:27;;;;;;;10.13;7.37;;;3.00;99.90;;;4.21;100.00;98701.34;5176683;28;20693;-66
2022/01/20 09:27:00;;;;;;;14.07;7.77;;;3.10;99.90;;;4.06;100.00;98706.75;5175791;28;20230;-66
2022/01/20 09:29:33;;;;;;;7.83;6.90;;;3.10;99.90;;;4.02;100.00;98699.59;5177579;28;20596;-66
2022/01/20 09:32:10;;;;;;;9.63;7.20;;;3.10;99.90;;;4.19;100.00;98702.84;5177407;28;20651;-66
2022/01/20 09:34:45;;;;;;;10.73;7.30;;;3.00;99.90;;;4.25;100.00;98698.34;5176440;28;20225;-66
2022/01/20 09:37:19;;;;;;;9.93;7.50;;;2.90;99.90;;;4.01;100.00;98702.88;5176471;28;20228;-68
2022/01/20 09:39:52;;;;;;;11.37;7.27;;;2.90;99.90;;;3.96;100.00;98700.66;5176357;28;20699;-66
2022/01/20 09:42:26;;;;;;;10.80;7.03;;;2.90;99.90;;;3.99;100.00;98704.34;5177439;28;20233;-66
2022/01/20 09:44:59;;;;;;;9.17;6.83;;;3.00;99.90;;;4.07;100.00;98716.09;5174470;28;20233;-66
2022/01/20 09:47:32;;;;;;;10.13;6.30;;;3.10;99.90;;;4.23;100.00;98707.44;5175652;28;20241;-66
2022/01/20 09:50:07;;;;;;;8.13;6.80;;;3.10;99.90;;;4.22;100.00;98708.19;5177566;28;20245;-65
2022/01/20 09:52:45;;;;;;;10.43;7.07;;;3.10;99.90;;;4.21;100.00;98707.31;5177403;28;20311;-65
2022/01/20 09:55:20;;;;;;;7.87;6.63;;;3.10;99.90;;;4.21;100.00;98702.25;5175603;28;20224;-67
2022/01/20 09:57:53;;;;;;;8.17;6.57;;;3.10;99.90;;;4.24;100.00;98706.69;5176016;28;20218;-66
2022/01/20 10:00:27;;;;;;;12.47;8.63;;;3.10;99.90;;;4.27;100.00;98695.22;5176280;28;20229;-66
2022/01/20 10:03:05;;;;;;;11.17;6.77;;;3.10;99.90;;;4.14;100.00;98696.44;5177118;28;20225;-66
2022/01/20 10:05:42;;;;;;;9.73;7.00;;;3.20;99.90;;;4.22;100.00;98705.66;5176605;28;20253;-67
2022/01/20 10:08:18;;;;;;;9.93;7.27;;;3.20;99.90;;;4.20;100.00;98694.50;5176658;28;20223;-67
2022/01/20 10:10:55;;;;;;;9.70;6.97;;;3.20;99.90;;;4.28;100.00;98693.59;5174847;28;20219;-65
2022/01/20 10:13:30;;;;;;;12.10;6.70;;;3.20;99.90;;;4.38;100.00;98695.31;5174052;28;20311;-67
2022/01/20 10:16:07;;;;;;;10.20;6.70;;;3.30;99.90;;;4.37;100.00;98703.69;5174370;28;20731;-67
2022/01/20 10:18:48;;;;;;;9.87;6.50;;;3.20;99.90;;;4.33;100.00;98707.56;5175372;28;20228;-66
2022/01/20 10:21:31;;;;;;;9.70;6.73;;;3.30;99.90;;;4.38;100.00;98708.91;5175065;28;20214;-65
2022/01/20 10:24:07;;;;;;;9.37;7.33;;;3.30;99.90;;;4.43;100.00;98719.44;5175101;28;20226;-67
2022/01/20 10:26:41;;;;;;;11.83;7.97;;;3.40;99.90;;;4.48;100.00;98719.13;5174701;28;20608;-65
2022/01/20 10:29:16;;;;;;;13.60;7.23;;;3.40;99.90;;;4.48;100.00;98716.59;5174435;28;20211;-66
2022/01/20 10:32:13;;;;;;;12.70;7.07;;;3.40;99.90;;;4.67;100.00;98720.88;5175853;28;20247;-66
2022/01/20 10:34:46;;;;;;;13.27;7.47;;;3.40;99.90;;;4.60;100.00;98713.44;5175856;28;20260;-66
2022/01/20 10:37:24;;;;;;;13.13;8.00;;;3.50;99.90;;;4.46;100.00;98715.59;5176142;28;20237;-66
2022/01/20 10:40:08;;;;;;;13.20;8.33;;;3.50;99.90;;;4.64;100.00;98702.88;5176074;28;20269;-67
2022/01/20 10:42:44;;;;;;;12.93;7.70;;;3.50;99.90;;;4.64;100.00;98700.34;5175094;28;20333;-67
2022/01/20 10:45:23;;;;;;;10.07;8.07;;;3.50;99.90;;;4.67;100.00;98690.50;5174398;28;20241;-66
2022/01/20 10:47:59;;;;;;;12.73;7.77;;;3.50;99.90;;;4.75;100.00;98692.09;5174349;28;20226;-69
2022/01/20 10:50:37;;;;;;;13.10;7.20;;;3.50;99.90;;;4.75;100.00;98697.16;5174705;28;21707;-67
2022/01/20 10:53:20;;;;;;;13.97;7.53;;;3.60;99.90;;;4.77;100.00;98702.34;5176003;28;20317;-65
2022/01/20 10:56:06;;;;;;;9.80;7.10;;;3.60;99.90;;;4.80;100.00;98697.56;5174475;28;20238;-66
2022/01/20 10:58:39;;;;;;;13.57;7.53;;;3.70;99.90;;;4.99;100.00;98687.50;5176546;28;20231;-65
2022/01/20 11:01:17;;;;;;;12.93;7.97;;;3.80;99.90;;;5.08;100.00;98685.81;5175984;28;20237;-66
2022/01/20 11:03:50;;;;;;;10.50;7.03;;;3.80;99.90;;;5.13;98.17;98695.63;5174139;28;20221;-66
2022/01/20 11:06:23;;;;;;;9.63;6.97;;;3.80;99.90;;;4.92;98.16;98699.63;5173329;28;20233;-67
2022/01/20 11:08:57;;;;;;;15.80;8.43;;;3.70;99.90;;;4.87;98.76;98689.81;5175381;28;20210;-66
2022/01/20 11:11:31;;;;;;;13.07;7.13;;;3.70;99.90;;;4.90;98.14;98683.38;5173981;28;20321;-65
2022/01/20 11:14:04;;;;;;;9.27;6.13;;;3.70;99.90;;;4.86;98.43;98678.75;5175066;28;20230;-66
2022/01/20 11:16:41;;;;;;;9.70;6.77;;;3.70;99.90;;;4.91;98.02;98669.06;5179134;28;20227;-64
2022/01/20 11:19:19;;;;;;;12.77;7.00;;;3.70;99.90;;;4.85;97.47;98665.97;5180993;28;20233;-65
2022/01/20 11:22:05;;;;;;;12.90;9.77;;;3.80;99.90;;;5.01;97.67;98665.72;5174338;28;20218;-66
2022/01/20 11:24:41;;;;;;;238.57;102.60;;;3.80;99.90;;;4.99;97.98;98679.91;5174841;28;20214;-66
2022/01/20 11:27:15;;;;;;;78.10;41.73;;;3.90;99.90;;;4.85;97.60;98671.91;5181801;28;20222;-67
2022/01/20 11:29:50;;;;;;;33.90;24.47;;;3.90;99.90;;;4.80;96.82;98668.06;5176023;28;20219;-66
2022/01/20 11:32:27;;;;;;;13.13;8.50;;;3.90;99.90;;;5.06;97.97;98678.06;5173835;28;20241;-66
2022/01/20 11:35:04;;;;;;;9.10;6.97;;;3.90;99.90;;;4.98;97.70;98671.41;5172602;28;20229;-66
2022/01/20 11:37:41;;;;;;;9.93;7.70;;;3.90;99.90;;;4.91;96.62;98677.53;5177316;28;20225;-66